20:41
Airports
Links
Donate
Help keep this website running!
PayPal
Bitcoin
METAR
LICC 222020Z 09004KT 020V130 9999 BKN060 22/14 Q1022
Current Weather Conditions at LICC
VFR 20:20:00 22-09-17
Altimeter:30.18 hg
Temp:22.0°c 72°f
Dew point:14.0°c 57°f
Wind:4 knots, 4.6 mph, 2 m/s, from 90°
Visibility:6.21 statute miles
6000(BKN) Broken
Past METAR reports
VFR 19:50:00 22-09-17
Altimeter:30.15 hg
Temp:23.0°c 73°f
Dew point:14.0°c 57°f
Wind:5 knots, 5.8 mph, 3 m/s, from 40°
Visibility:6.21 statute miles
5000(BKN) Broken
LICC 221950Z 04005KT 010V070 9999 BKN050 23/14 Q1021
VFR 19:20:00 22-09-17
Altimeter:30.15 hg
Temp:23.0°c 73°f
Dew point:14.0°c 57°f
Wind:6 knots, 6.9 mph, 3 m/s, from 40°
Visibility:6.21 statute miles
5000(BKN) Broken
LICC 221920Z 04006KT 9999 BKN050 23/14 Q1021
VFR 18:50:00 22-09-17
Altimeter:30.15 hg
Temp:23.0°c 73°f
Dew point:14.0°c 57°f
Wind:6 knots, 6.9 mph, 3 m/s, from 40°
Visibility:6.21 statute miles
6000(BKN) Broken
LICC 221850Z 04006KT 9999 BKN060 23/14 Q1021
VFR 18:20:00 22-09-17
Altimeter:30.15 hg
Temp:23.0°c 73°f
Dew point:15.0°c 59°f
Wind:9 knots, 10.4 mph, 5 m/s, from 50°
Visibility:6.21 statute miles
5000(FEW) A few
LICC 221820Z 05009KT 9999 FEW050 23/15 Q1021
VFR 17:50:00 22-09-17
Altimeter:30.15 hg
Temp:22.0°c 72°f
Dew point:15.0°c 59°f
Wind:8 knots, 9.2 mph, 4 m/s, from 60°
Visibility:6.21 statute miles
(CAVOK)
LICC 221750Z 06008KT CAVOK 22/15 Q1021
VFR 17:20:00 22-09-17
Altimeter:30.12 hg
Temp:22.0°c 72°f
Dew point:15.0°c 59°f
Wind:8 knots, 9.2 mph, 4 m/s, from 70°
Visibility:6.21 statute miles
(CAVOK)
LICC 221720Z 07008KT CAVOK 22/15 Q1020
TAF
TAF LICC 221700Z 2218/2318 VRB05KT 9999 FEW030 BECMG 2308/2310 10012KT
Forecast at LICC
18:00 22-09-17 to 08:00 23-09-17
Wind:5 Knots from 360°
Visibility:6.21 statute miles
3000FEW A few
BECMG 08:00 23-09-17 to 18:00 23-09-17
Wind:12 Knots from 100°
Visibility:6.21 statute miles
3000FEW A few